Time,TemperatureF,DewpointF,PressureIn,WindDirection,WindDirectionDegrees,WindSpeedMPH,WindSpeedGustMPH,Humidity,HourlyPrecipIn,Conditions,Clouds,dailyrainin,SoftwareType,DateUTC
2013-02-16 00:02:00,36.0,32.0,-100.00,North,11,0.0,4.0,89,0.00,,,-99.99,,2013-02-16 05:02:00,
2013-02-16 00:12:00,36.0,32.0,-100.00,NNW,337,0.0,4.0,89,0.00,,,-99.99,,2013-02-16 05:12:00,
2013-02-16 00:22:00,34.0,32.0,-100.00,NNW,337,0.0,4.0,88,0.00,,,-99.99,,2013-02-16 05:22:00,
2013-02-16 00:32:00,34.0,30.0,-100.00,NNE,18,0.0,4.0,86,0.00,,,-99.99,,2013-02-16 05:32:00,
2013-02-16 00:42:00,34.0,32.0,-100.00,NNE,14,0.0,4.0,86,0.00,,,-99.99,,2013-02-16 05:42:00,
2013-02-16 00:52:00,34.0,30.0,-100.00,North,9,0.0,4.0,86,0.00,,,-99.99,,2013-02-16 05:52:00,
2013-02-16 01:02:00,34.0,30.0,-100.00,NNE,33,0.0,4.0,86,0.00,,,-99.99,,2013-02-16 06:02:00,
2013-02-16 01:11:00,34.0,30.0,-100.00,East,80,0.0,4.0,84,0.00,,,-99.99,,2013-02-16 06:11:00,
2013-02-16 01:21:00,33.0,30.0,-100.00,NNE,19,0.0,4.0,84,0.00,,,-99.99,,2013-02-16 06:21:00,
2013-02-16 01:32:00,34.0,30.0,-100.00,NNE,32,0.0,4.0,84,0.00,,,-99.99,,2013-02-16 06:32:00,
2013-02-16 01:42:00,36.0,32.0,-100.00,NNE,19,0.0,4.0,85,0.00,,,-99.99,,2013-02-16 06:42:00,
2013-02-16 01:52:00,33.0,30.0,-100.00,NNE,28,0.0,4.0,85,1.14,,,-99.99,,2013-02-16 06:52:00,
2013-02-16 02:02:00,33.0,30.0,-100.00,NNE,33,0.0,4.0,85,7.36,,,-99.99,,2013-02-16 07:02:00,
2013-02-16 02:11:00,35.0,32.0,-100.00,NNE,28,0.0,4.0,85,2.83,,,-99.99,,2013-02-16 07:11:00,
2013-02-16 02:21:00,33.0,30.0,-100.00,ENE,64,0.0,4.0,85,0.00,,,-99.99,,2013-02-16 07:21:00,
2013-02-16 02:32:00,35.0,32.0,-100.00,East,88,0.0,4.0,86,0.00,,,-99.99,,2013-02-16 07:32:00,
2013-02-16 02:42:00,36.0,32.0,-100.00,West,269,0.0,4.0,86,0.00,,,-99.99,,2013-02-16 07:42:00,
2013-02-16 02:52:00,33.0,30.0,-100.00,ESE,110,0.0,4.0,85,0.00,,,-99.99,,2013-02-16 07:52:00,
2013-02-16 03:01:00,33.0,30.0,-100.00,ENE,66,0.0,4.0,86,0.00,,,-99.99,,2013-02-16 08:01:00,
2013-02-16 03:11:00,32.0,30.0,-100.00,East,79,1.0,4.0,86,0.00,,,-99.99,,2013-02-16 08:11:00,
2013-02-16 03:21:00,32.0,30.0,-100.00,ENE,74,0.0,4.0,88,0.00,,,-99.99,,2013-02-16 08:21:00,
2013-02-16 03:32:00,32.0,30.0,-100.00,ENE,64,1.0,1.0,88,0.00,,,-99.99,,2013-02-16 08:32:00,
2013-02-16 03:42:00,34.0,32.0,-100.00,ENE,72,0.0,1.0,88,0.00,,,-99.99,,2013-02-16 08:42:00,
2013-02-16 03:52:00,32.0,30.0,-100.00,East,87,0.0,1.0,86,0.00,,,-99.99,,2013-02-16 08:52:00,
2013-02-16 04:02:00,32.0,30.0,-100.00,ENE,67,0.0,1.0,86,0.00,,,-99.99,,2013-02-16 09:02:00,
2013-02-16 04:11:00,33.0,30.0,-100.00,North,5,0.0,1.0,85,0.00,,,-99.99,,2013-02-16 09:11:00,
2013-02-16 04:21:00,34.0,32.0,-100.00,ENE,62,0.0,1.0,86,1.14,,,-99.99,,2013-02-16 09:21:00,
2013-02-16 04:32:00,35.0,32.0,-100.00,North,8,0.0,1.0,88,0.00,,,-99.99,,2013-02-16 09:32:00,
2013-02-16 04:42:00,34.0,32.0,-100.00,NNE,18,0.0,1.0,86,0.00,,,-99.99,,2013-02-16 09:42:00,
2013-02-16 04:51:00,34.0,32.0,-100.00,SSW,201,0.0,1.0,86,1.14,,,-99.99,,2013-02-16 09:51:00,
2013-02-16 05:01:00,31.0,28.0,-100.00,West,276,0.0,1.0,88,0.00,,,-99.99,,2013-02-16 10:01:00,
2013-02-16 05:11:00,31.0,30.0,-100.00,West,272,0.0,1.0,89,0.00,,,-99.99,,2013-02-16 10:11:00,
2013-02-16 05:21:00,33.0,32.0,-100.00,West,271,0.0,1.0,91,0.00,,,-99.99,,2013-02-16 10:21:00,
2013-02-16 05:32:00,31.0,28.0,-100.00,NNW,343,0.0,1.0,90,0.00,,,-99.99,,2013-02-16 10:32:00,
2013-02-16 05:42:00,31.0,30.0,-100.00,NE,55,0.0,1.0,90,0.00,,,-99.99,,2013-02-16 10:42:00,
2013-02-16 05:51:00,31.0,30.0,-100.00,NE,55,0.0,1.0,90,0.00,,,-99.99,,2013-02-16 10:51:00,
2013-02-16 06:02:00,30.0,28.0,-100.00,NNE,19,0.0,1.0,91,0.00,,,-99.99,,2013-02-16 11:02:00,
2013-02-16 06:11:00,29.0,28.0,-100.00,East,80,0.0,1.0,93,0.00,,,-99.99,,2013-02-16 11:11:00,
2013-02-16 06:22:00,30.0,28.0,-100.00,East,97,0.0,1.0,93,0.00,,,-99.99,,2013-02-16 11:22:00,
2013-02-16 06:32:00,28.0,28.0,-100.00,ESE,105,0.0,1.0,94,0.00,,,-99.99,,2013-02-16 11:32:00,
2013-02-16 06:42:00,28.0,27.0,-100.00,East,100,0.0,1.0,93,0.00,,,-99.99,,2013-02-16 11:42:00,
2013-02-16 06:52:00,29.0,28.0,-100.00,SSE,162,0.0,1.0,95,0.00,,,-99.99,,2013-02-16 11:52:00,
2013-02-16 07:02:00,28.0,28.0,-100.00,NE,40,0.0,1.0,94,0.00,,,-99.99,,2013-02-16 12:02:00,
2013-02-16 07:12:00,28.0,28.0,-100.00,South,177,0.0,1.0,95,0.00,,,-99.99,,2013-02-16 12:12:00,
2013-02-16 07:22:00,28.0,28.0,-100.00,SSE,166,0.0,1.0,94,0.00,,,-99.99,,2013-02-16 12:22:00,
2013-02-16 07:32:00,28.0,27.0,-100.00,SE,139,0.0,1.0,95,0.00,,,-99.99,,2013-02-16 12:32:00,
2013-02-16 07:42:00,28.0,28.0,-100.00,SW,231,0.0,1.0,95,0.00,,,-99.99,,2013-02-16 12:42:00,
2013-02-16 07:52:00,28.0,28.0,-100.00,South,169,0.0,1.0,95,0.00,,,-99.99,,2013-02-16 12:52:00,
2013-02-16 08:02:00,28.0,28.0,-100.00,SSE,159,0.0,1.0,95,0.00,,,-99.99,,2013-02-16 13:02:00,
2013-02-16 08:12:00,29.0,28.0,-100.00,SE,128,0.0,1.0,95,0.00,,,-99.99,,2013-02-16 13:12:00,
2013-02-16 08:22:00,31.0,30.0,-100.00,South,169,0.0,1.0,95,0.00,,,-99.99,,2013-02-16 13:22:00,
2013-02-16 08:32:00,32.0,32.0,-100.00,ESE,117,0.0,1.0,93,0.00,,,-99.99,,2013-02-16 13:32:00,
2013-02-16 08:41:00,34.0,32.0,-100.00,WSW,256,0.0,1.0,93,0.00,,,-99.99,,2013-02-16 13:41:00,
2013-02-16 08:51:00,31.0,30.0,-100.00,West,276,0.0,1.0,91,0.00,,,-99.99,,2013-02-16 13:51:00,
2013-02-16 09:01:00,34.0,32.0,-100.00,WSW,241,0.0,1.0,93,2.83,,,-99.99,,2013-02-16 14:01:00,
2013-02-16 09:11:00,31.0,30.0,-100.00,WNW,289,0.0,1.0,93,0.00,,,-99.99,,2013-02-16 14:11:00,
2013-02-16 09:21:00,32.0,32.0,-100.00,West,266,0.0,1.0,93,0.00,,,-99.99,,2013-02-16 14:21:00,
2013-02-16 09:32:00,32.0,30.0,-100.00,WSW,258,0.0,1.0,91,0.00,,,-99.99,,2013-02-16 14:32:00,
2013-02-16 09:42:00,34.0,32.0,-100.00,SW,234,0.0,1.0,91,0.00,,,-99.99,,2013-02-16 14:42:00,
2013-02-16 09:52:00,32.0,30.0,-100.00,SW,227,0.0,1.0,91,0.00,,,-99.99,,2013-02-16 14:52:00,
2013-02-16 10:02:00,34.0,32.0,-100.00,WSW,254,0.0,1.0,91,0.00,,,-99.99,,2013-02-16 15:02:00,
2013-02-16 10:11:00,34.0,30.0,-100.00,WNW,286,0.0,1.0,81,0.00,,,-99.99,,2013-02-16 15:11:00,
2013-02-16 10:22:00,34.0,28.0,-100.00,WNW,292,1.0,1.0,75,0.00,,,-99.99,,2013-02-16 15:22:00,
2013-02-16 10:32:00,34.0,27.0,-100.00,WNW,293,1.0,1.0,71,0.00,,,-99.99,,2013-02-16 15:32:00,
2013-02-16 10:42:00,34.0,27.0,-100.00,WNW,289,0.0,1.0,69,0.00,,,-99.99,,2013-02-16 15:42:00,
2013-02-16 10:52:00,36.0,28.0,-100.00,WSW,255,0.0,1.0,71,0.00,,,-99.99,,2013-02-16 15:52:00,
2013-02-16 11:01:00,32.0,28.0,-100.00,WNW,290,2.0,4.0,81,0.00,,,-99.99,,2013-02-16 16:01:00,
2013-02-16 11:11:00,32.0,28.0,-100.00,WSW,256,1.0,4.0,86,1.14,,,-99.99,,2013-02-16 16:11:00,
2013-02-16 11:21:00,33.0,28.0,-100.00,NW,309,1.0,4.0,81,2.83,,,-99.99,,2013-02-16 16:21:00,
2013-02-16 11:32:00,34.0,28.0,-100.00,NNW,331,1.0,4.0,77,1.14,,,-99.99,,2013-02-16 16:32:00,
2013-02-16 11:42:00,36.0,28.0,-100.00,North,354,1.0,4.0,72,0.00,,,-99.99,,2013-02-16 16:42:00,
2013-02-16 11:52:00,34.0,28.0,-100.00,WNW,289,1.0,4.0,76,0.00,,,-99.99,,2013-02-16 16:52:00,
2013-02-16 12:01:00,35.0,28.0,-100.00,West,265,0.0,4.0,75,0.00,,,-99.99,,2013-02-16 17:01:00,
2013-02-16 12:11:00,34.0,25.0,-100.00,West,259,0.0,4.0,68,0.00,,,-99.99,,2013-02-16 17:11:00,
2013-02-16 12:22:00,35.0,27.0,-100.00,WSW,242,0.0,4.0,68,0.00,,,-99.99,,2013-02-16 17:22:00,
2013-02-16 12:32:00,34.0,25.0,-100.00,NW,317,0.0,4.0,67,0.00,,,-99.99,,2013-02-16 17:32:00,
2013-02-16 12:42:00,35.0,23.0,-100.00,West,279,1.0,4.0,60,0.00,,,-99.99,,2013-02-16 17:42:00,
2013-02-16 12:52:00,34.0,21.0,-100.00,West,266,1.0,4.0,58,0.00,,,-99.99,,2013-02-16 17:52:00,
2013-02-16 13:02:00,33.0,25.0,-100.00,WNW,286,2.0,4.0,68,1.14,,,-99.99,,2013-02-16 18:02:00,
2013-02-16 13:11:00,35.0,25.0,-100.00,NW,304,1.0,4.0,64,0.00,,,-99.99,,2013-02-16 18:11:00,
2013-02-16 13:22:00,36.0,21.0,-100.00,WNW,290,0.0,4.0,50,0.00,,,-99.99,,2013-02-16 18:22:00,
2013-02-16 13:33:00,37.0,21.0,-100.00,NNW,347,1.0,4.0,53,0.00,,,-99.99,,2013-02-16 18:33:00,
2013-02-16 13:42:00,37.0,19.0,-100.00,WSW,237,1.0,4.0,46,0.00,,,-99.99,,2013-02-16 18:42:00,
2013-02-16 13:51:00,34.0,18.0,-100.00,West,280,1.0,4.0,49,0.00,,,-99.99,,2013-02-16 18:51:00,
2013-02-16 14:02:00,33.0,19.0,-100.00,NNE,22,1.0,4.0,54,0.00,,,-99.99,,2013-02-16 19:02:00,
2013-02-16 14:11:00,33.0,18.0,-100.00,North,0,1.0,4.0,51,0.00,,,-99.99,,2013-02-16 19:11:00,
2013-02-16 14:21:00,33.0,18.0,-100.00,North,5,1.0,4.0,49,0.00,,,-99.99,,2013-02-16 19:21:00,
2013-02-16 14:32:00,33.0,18.0,-100.00,NNW,328,1.0,4.0,50,0.00,,,-99.99,,2013-02-16 19:32:00,
2013-02-16 14:42:00,34.0,18.0,-100.00,WSW,245,0.0,4.0,50,0.00,,,-99.99,,2013-02-16 19:42:00,
2013-02-16 14:52:00,33.0,18.0,-100.00,NNE,26,1.0,4.0,50,0.00,,,-99.99,,2013-02-16 19:52:00,
2013-02-16 15:01:00,34.0,19.0,-100.00,WNW,292,1.0,4.0,53,0.00,,,-99.99,,2013-02-16 20:01:00,
2013-02-16 15:11:00,34.0,18.0,-100.00,WNW,283,1.0,4.0,50,0.00,,,-99.99,,2013-02-16 20:11:00,
2013-02-16 15:21:00,34.0,21.0,-100.00,NW,321,2.0,4.0,56,0.00,,,-99.99,,2013-02-16 20:21:00,
2013-02-16 15:32:00,33.0,19.0,-100.00,NNE,33,2.0,4.0,55,0.00,,,-99.99,,2013-02-16 20:32:00,
2013-02-16 15:42:00,34.0,21.0,-100.00,South,182,0.0,4.0,56,0.00,,,-99.99,,2013-02-16 20:42:00,
2013-02-16 15:52:00,33.0,18.0,-100.00,NNW,336,0.0,4.0,50,0.00,,,-99.99,,2013-02-16 20:52:00,
2013-02-16 16:02:00,34.0,18.0,-100.00,West,272,1.0,4.0,50,0.00,,,-99.99,,2013-02-16 21:02:00,
2013-02-16 16:11:00,33.0,19.0,-100.00,WNW,282,0.0,4.0,53,0.00,,,-99.99,,2013-02-16 21:11:00,
2013-02-16 16:21:00,33.0,19.0,-100.00,West,276,1.0,4.0,55,0.00,,,-99.99,,2013-02-16 21:21:00,
2013-02-16 16:32:00,33.0,19.0,-100.00,WNW,286,0.0,4.0,54,0.00,,,-99.99,,2013-02-16 21:32:00,
2013-02-16 16:42:00,33.0,19.0,-100.00,NW,321,0.0,4.0,53,0.00,,,-99.99,,2013-02-16 21:42:00,
2013-02-16 16:52:00,32.0,19.0,-100.00,NNE,32,1.0,4.0,58,0.00,,,-99.99,,2013-02-16 21:52:00,
2013-02-16 17:01:00,33.0,21.0,-100.00,North,357,0.0,4.0,59,0.00,,,-99.99,,2013-02-16 22:01:00,
2013-02-16 17:11:00,34.0,25.0,-100.00,West,275,0.0,4.0,67,0.00,,,-99.99,,2013-02-16 22:11:00,
2013-02-16 17:21:00,34.0,25.0,-100.00,East,90,0.0,4.0,68,0.00,,,-99.99,,2013-02-16 22:21:00,
2013-02-16 17:32:00,33.0,25.0,-100.00,East,87,0.0,4.0,68,0.00,,,-99.99,,2013-02-16 22:32:00,
2013-02-16 17:42:00,32.0,25.0,-100.00,SE,128,1.0,4.0,69,0.00,,,-99.99,,2013-02-16 22:42:00,
2013-02-16 17:51:00,32.0,23.0,-100.00,SE,128,1.0,4.0,68,0.00,,,-99.99,,2013-02-16 22:51:00,
2013-02-16 18:02:00,31.0,21.0,-100.00,ESE,111,0.0,4.0,64,0.00,,,-99.99,,2013-02-16 23:02:00,
2013-02-16 18:11:00,31.0,23.0,-100.00,East,100,0.0,4.0,67,0.00,,,-99.99,,2013-02-16 23:11:00,
2013-02-16 18:21:00,31.0,21.0,-100.00,South,180,0.0,4.0,66,0.00,,,-99.99,,2013-02-16 23:21:00,
2013-02-16 18:32:00,31.0,21.0,-100.00,SSE,156,0.0,4.0,67,0.00,,,-99.99,,2013-02-16 23:32:00,
2013-02-16 18:42:00,31.0,23.0,-100.00,SE,129,0.0,4.0,69,0.00,,,-99.99,,2013-02-16 23:42:00,
2013-02-16 18:52:00,31.0,23.0,-100.00,ESE,121,1.0,4.0,69,0.00,,,-99.99,,2013-02-16 23:52:00,
2013-02-16 19:02:00,31.0,23.0,-100.00,SE,139,0.0,4.0,67,0.00,,,-99.99,,2013-02-17 00:02:00,
2013-02-16 19:12:00,31.0,21.0,-100.00,East,100,0.0,4.0,66,0.00,,,-99.99,,2013-02-17 00:12:00,
2013-02-16 19:22:00,31.0,23.0,-100.00,NE,48,0.0,4.0,67,0.00,,,-99.99,,2013-02-17 00:22:00,
2013-02-16 19:32:00,31.0,21.0,-100.00,ENE,57,1.0,4.0,63,0.00,,,-99.99,,2013-02-17 00:32:00,
2013-02-16 19:42:00,31.0,21.0,-100.00,NE,43,0.0,4.0,63,0.00,,,-99.99,,2013-02-17 00:42:00,
2013-02-16 19:52:00,31.0,21.0,-100.00,East,90,1.0,4.0,62,0.00,,,-99.99,,2013-02-17 00:52:00,
2013-02-16 20:01:00,31.0,19.0,-100.00,NE,55,0.0,4.0,59,0.00,,,-99.99,,2013-02-17 01:01:00,
2013-02-16 20:11:00,31.0,19.0,-100.00,NE,46,0.0,4.0,58,0.00,,,-99.99,,2013-02-17 01:11:00,
2013-02-16 20:21:00,31.0,19.0,-100.00,NNE,25,0.0,4.0,58,0.00,,,-99.99,,2013-02-17 01:21:00,
2013-02-16 20:32:00,31.0,18.0,-100.00,NNE,28,0.0,4.0,56,0.00,,,-99.99,,2013-02-17 01:32:00,
2013-02-16 20:42:00,30.0,21.0,-100.00,NNE,32,1.0,4.0,66,6.22,,,-99.99,,2013-02-17 01:42:00,
2013-02-16 20:52:00,31.0,25.0,-100.00,West,269,0.0,4.0,72,7.36,,,-99.99,,2013-02-17 01:52:00,
2013-02-16 21:01:00,31.0,27.0,-100.00,West,261,0.0,4.0,81,1.14,,,-99.99,,2013-02-17 02:01:00,
2013-02-16 21:11:00,31.0,27.0,-100.00,WNW,302,0.0,4.0,84,1.14,,,-99.99,,2013-02-17 02:11:00,
2013-02-16 21:21:00,30.0,27.0,-100.00,WSW,249,0.0,4.0,85,7.36,,,-99.99,,2013-02-17 02:21:00,
2013-02-16 21:32:00,30.0,27.0,-100.00,NW,309,0.0,4.0,86,4.53,,,-99.99,,2013-02-17 02:32:00,
2013-02-16 21:42:00,30.0,27.0,-100.00,NNW,330,0.0,4.0,84,0.00,,,-99.99,,2013-02-17 02:42:00,
2013-02-16 21:52:00,29.0,25.0,-100.00,ENE,70,0.0,4.0,82,0.00,,,-99.99,,2013-02-17 02:52:00,
2013-02-16 22:02:00,29.0,25.0,-100.00,NW,314,0.0,4.0,82,0.00,,,-99.99,,2013-02-17 03:02:00,
2013-02-16 22:11:00,30.0,25.0,-100.00,WNW,300,0.0,4.0,81,0.00,,,-99.99,,2013-02-17 03:11:00,
2013-02-16 22:21:00,29.0,25.0,-100.00,WNW,292,0.0,4.0,80,0.00,,,-99.99,,2013-02-17 03:21:00,
2013-02-16 22:32:00,30.0,25.0,-100.00,WNW,290,0.0,4.0,80,0.00,,,-99.99,,2013-02-17 03:32:00,
2013-02-16 22:42:00,30.0,27.0,-100.00,WNW,288,0.0,4.0,82,0.00,,,-99.99,,2013-02-17 03:42:00,
2013-02-16 22:51:00,30.0,27.0,-100.00,West,273,0.0,4.0,86,0.00,,,-99.99,,2013-02-17 03:51:00,
2013-02-16 23:01:00,30.0,28.0,-100.00,West,279,0.0,4.0,89,0.00,,,-99.99,,2013-02-17 04:01:00,
2013-02-16 23:11:00,29.0,28.0,-100.00,WNW,282,0.0,4.0,89,0.00,,,-99.99,,2013-02-17 04:11:00,
2013-02-16 23:21:00,27.0,25.0,-100.00,WNW,289,0.0,4.0,88,0.00,,,-99.99,,2013-02-17 04:21:00,
2013-02-16 23:32:00,29.0,27.0,-100.00,WNW,295,0.0,4.0,88,0.00,,,-99.99,,2013-02-17 04:32:00,
2013-02-16 23:42:00,29.0,27.0,-100.00,NW,313,0.0,4.0,89,2.83,,,-99.99,,2013-02-17 04:42:00,
2013-02-16 23:51:00,29.0,27.0,-100.00,NNW,328,0.0,4.0,89,1.14,,,-99.99,,2013-02-17 04:51:00,